In Rescue
 
Open Full Screen Window  High Contrast Mode
Wind Gusting 00 knots
03
April 19, 2021 9:39 PM EDT
Weather Information
Wind Direction
  270 °
Wind Speed
  03 kt (3 mph)
Wind Gust
  00 kt (0 mph)
Altimeter
29.89 in
Visibility
10 SM
Temperature
04° C
39° F
Dewpoint
-01° C
30° F
Humidity
70%
Sky Condition
Overcast @ 7,000 ft
Broken @ 4,600 ft
Broken @ 4,000 ft
VFR

METAR KFFX 200139Z AUTO 27003KT 10SM BKN040 BKN046 OVC070 04/M01 A2989 RMK AO2 T00391012

FAA Disclaimer: The data displayed is for advisory purposes only and is not to be used for flight planning or operations.